John Paul Eckstein — WDH6438 — position and weather

sailwx.info

Track history (hours):
 
Tides and Currents Weather Stations Pressure Air Temp Water Temp Dewpoint Dewpoint Depression Visibility Wind Speed Wind Dir Waves Ship Positions

John Paul Eckstein

Owner: Marquette Transportation Co. LLC, Paducah, KY. More information available from US FCC via Universal Licensing System and Coast Guard Vessel Documentation Center.

Last reported at 2017-Nov-12 15:42 UTC. Time now 2017-Nov-21 21:01 UTC.
Position N 31°53' W 091°13'.
Warning: this ship's position is 9 days out of date.

Length 51 m; draft 2.7 m.

Type: Towing. MMSI: 367637960.

Date/timePositionNaut miles runAvg speedWind from/ knotsBaromVisibWave heightAir tempDewpointWater temp
2017-Nov-12 15:42N 31°53' W 091°13'2 9.2
2017-Nov-12 15:30N 31°54' W 091°12'7 7.8
2017-Nov-12 14:38N 31°59' W 091°06'1 9.1
2017-Nov-12 14:30N 31°60' W 091°05'6 8.0
2017-Nov-12 13:42N 32°06' W 091°06'1 6.0
2017-Nov-12 13:30N 32°07' W 091°07'3 5.0
2017-Nov-12 12:58N 32°08' W 091°03'3 7.5
2017-Nov-12 12:30N 32°10' W 091°00'5 9.5
2017-Nov-12 12:00N 32°14' W 090°59'5 9.3
2017-Nov-12 11:30N 32°18' W 090°55'3 5.3
2017-Nov-12 11:00N 32°20' W 090°54'3 5.6
2017-Nov-12 10:30N 32°21' W 090°57'3 6.3
2017-Nov-12 10:00N 32°23' W 090°60'4 8.2
2017-Nov-12 09:30N 32°26' W 091°03'4 9.0
2017-Nov-12 09:00N 32°29' W 091°07'5 9.4
2017-Nov-12 08:30N 32°34' W 091°06'5 9.4
2017-Nov-12 08:00N 32°38' W 091°09'  
Track history (hours):
 
Tides and Currents Weather Stations Pressure Air Temp Water Temp Dewpoint Dewpoint Depression Visibility Wind Speed Wind Dir Waves Ship Positions

John Paul Eckstein

Owner: Marquette Transportation Co. LLC, Paducah, KY. More information available from US FCC via Universal Licensing System and Coast Guard Vessel Documentation Center.

Last reported at 2017-Nov-12 15:42 UTC. Time now 2017-Nov-21 21:01 UTC.
Position N 31°53' W 091°13'.
Warning: this ship's position is 9 days out of date.

Length 51 m; draft 2.7 m.

Type: Towing. MMSI: 367637960.

Date/timePositionNaut miles runAvg speedWind from/ knotsBaromVisibWave heightAir tempDewpointWater temp
2017-Nov-12 15:42N 31°53' W 091°13'2 9.2
2017-Nov-12 15:30N 31°54' W 091°12'7 7.8
2017-Nov-12 14:38N 31°59' W 091°06'1 9.1
2017-Nov-12 14:30N 31°60' W 091°05'6 8.0
2017-Nov-12 13:42N 32°06' W 091°06'1 6.0
2017-Nov-12 13:30N 32°07' W 091°07'3 5.0
2017-Nov-12 12:58N 32°08' W 091°03'3 7.5
2017-Nov-12 12:30N 32°10' W 091°00'5 9.5
2017-Nov-12 12:00N 32°14' W 090°59'5 9.3
2017-Nov-12 11:30N 32°18' W 090°55'3 5.3
2017-Nov-12 11:00N 32°20' W 090°54'3 5.6
2017-Nov-12 10:30N 32°21' W 090°57'3 6.3
2017-Nov-12 10:00N 32°23' W 090°60'4 8.2
2017-Nov-12 09:30N 32°26' W 091°03'4 9.0
2017-Nov-12 09:00N 32°29' W 091°07'5 9.4
2017-Nov-12 08:30N 32°34' W 091°06'5 9.4
2017-Nov-12 08:00N 32°38' W 091°09'  

Dump ship's entire track history